Time;durP1;ratioP1;P1;durP2;ratioP2;P2;SDS_P1;SDS_P2;PMS_P1;PMS_P2;Temp;Humidity;BMP_temperature;BMP_pressure;BME280_temperature;BME280_humidity;BME280_pressure;Samples;Min_cycle;Max_cycle;Signal;HPM_P1;HPM_P2
2023/01/12 00:01:33;;;;;;;4.60;0.98;;;7.80;83.90;;;;;;5014617;28;20184;-62
2023/01/12 00:03:58;;;;;;;3.45;0.90;;;7.80;84.00;;;;;;5013810;28;20108;-61
2023/01/12 00:06:24;;;;;;;3.65;0.90;;;7.80;84.00;;;;;;5014304;28;20548;-63
2023/01/12 00:08:51;;;;;;;3.20;0.80;;;7.80;84.10;;;;;;5013757;28;20644;-62
2023/01/12 00:11:18;;;;;;;4.18;0.95;;;7.70;84.10;;;;;;5010405;28;20041;-62
2023/01/12 00:13:44;;;;;;;3.65;1.08;;;7.70;84.10;;;;;;5014153;28;20565;-62
2023/01/12 00:16:33;;;;;;;5.85;0.90;;;7.70;84.10;;;;;;5009560;28;20531;-61
2023/01/12 00:19:00;;;;;;;3.30;0.82;;;7.70;84.30;;;;;;5002795;28;20033;-63
2023/01/12 00:21:25;;;;;;;2.78;0.70;;;7.70;84.30;;;;;;5005179;28;20524;-62
2023/01/12 00:23:51;;;;;;;4.68;0.90;;;7.60;84.30;;;;;;5001620;28;20033;-62
2023/01/12 00:26:16;;;;;;;3.90;0.75;;;7.60;84.30;;;;;;5007229;28;20084;-63
2023/01/12 00:28:42;;;;;;;3.10;0.90;;;7.60;84.30;;;;;;5006782;28;20022;-62
2023/01/12 00:31:09;;;;;;;5.13;0.90;;;7.60;84.30;;;;;;5002328;28;20090;-63
2023/01/12 00:33:36;;;;;;;7.05;1.42;;;7.60;84.40;;;;;;5003957;28;20497;-63
2023/01/12 00:36:06;;;;;;;4.32;0.80;;;7.60;84.50;;;;;;5004326;28;20318;-63
2023/01/12 00:38:35;;;;;;;9.93;1.13;;;7.50;84.50;;;;;;5002652;28;20071;-63
2023/01/12 00:41:05;;;;;;;5.43;1.10;;;7.50;84.40;;;;;;5006518;28;20316;-62
2023/01/12 00:46:15;;;;;;;4.63;0.85;;;7.50;84.40;;;;;;5004373;28;20065;-62
2023/01/12 00:48:41;;;;;;;3.05;0.80;;;7.50;84.40;;;;;;5001213;28;20049;-63
2023/01/12 00:51:06;;;;;;;4.72;1.00;;;7.50;84.40;;;;;;5002958;28;20046;-61
2023/01/12 00:53:32;;;;;;;3.97;0.90;;;7.50;84.50;;;;;;5006505;28;20066;-62
2023/01/12 00:56:02;;;;;;;2.78;0.90;;;7.40;84.50;;;;;;5005616;28;20049;-61
2023/01/12 00:58:28;;;;;;;3.80;0.75;;;7.50;84.50;;;;;;5006523;28;20040;-62
2023/01/12 01:00:54;;;;;;;5.50;1.13;;;7.50;84.50;;;;;;5005758;28;20033;-62
2023/01/12 01:03:20;;;;;;;5.57;1.00;;;7.50;84.50;;;;;;5003899;28;20398;-62
2023/01/12 01:05:45;;;;;;;4.38;1.42;;;7.50;84.60;;;;;;5008318;28;20592;-61
2023/01/12 01:08:11;;;;;;;8.40;1.08;;;7.50;84.60;;;;;;5006657;28;20091;-61
2023/01/12 01:10:37;;;;;;;4.78;1.05;;;7.50;84.60;;;;;;5003183;28;20026;-63
2023/01/12 01:13:03;;;;;;;8.85;1.50;;;7.50;84.60;;;;;;5004715;28;20042;-62
2023/01/12 01:15:28;;;;;;;9.05;1.17;;;7.40;84.50;;;;;;5002488;28;20564;-62
2023/01/12 01:17:54;;;;;;;9.18;1.33;;;7.50;84.50;;;;;;5002372;28;20042;-62
2023/01/12 01:20:20;;;;;;;6.85;1.17;;;7.50;84.50;;;;;;5005669;28;20066;-62
2023/01/12 01:22:46;;;;;;;8.30;1.05;;;7.50;84.50;;;;;;5005354;28;20172;-61
2023/01/12 01:25:11;;;;;;;4.53;0.90;;;7.50;84.40;;;;;;5004514;28;20158;-61
2023/01/12 01:27:37;;;;;;;6.20;1.05;;;7.50;84.40;;;;;;5004290;28;20049;-62
2023/01/12 01:30:03;;;;;;;3.55;0.95;;;7.50;84.40;;;;;;5005161;28;20333;-61
2023/01/12 01:32:29;;;;;;;6.05;0.88;;;7.50;84.30;;;;;;5004119;28;20034;-61
2023/01/12 01:34:54;;;;;;;5.07;1.10;;;7.50;84.10;;;;;;5003795;28;20080;-61
2023/01/12 01:37:20;;;;;;;4.13;1.00;;;7.50;84.10;;;;;;5003303;28;20034;-63
2023/01/12 01:39:46;;;;;;;6.95;0.98;;;7.50;84.10;;;;;;5007853;28;20560;-63
2023/01/12 01:42:26;;;;;;;5.22;1.20;;;7.50;84.00;;;;;;5003654;28;20045;-63
2023/01/12 01:44:54;;;;;;;4.40;0.98;;;7.50;83.90;;;;;;5005693;28;20038;-63
2023/01/12 01:47:49;;;;;;;5.43;1.05;;;7.50;83.90;;;;;;5009507;28;20046;-63
2023/01/12 01:50:22;;;;;;;5.90;0.95;;;7.40;84.00;;;;;;5006564;28;20046;-62
2023/01/12 01:52:55;;;;;;;4.28;1.10;;;7.40;84.00;;;;;;5011262;28;20068;-63
2023/01/12 01:55:25;;;;;;;5.00;1.23;;;7.40;84.00;;;;;;5011200;28;20129;-62
2023/01/12 01:58:03;;;;;;;6.40;1.20;;;7.40;84.10;;;;;;5010070;28;22391;-63
2023/01/12 02:00:28;;;;;;;5.47;0.88;;;7.40;84.30;;;;;;5006512;28;20041;-64
2023/01/12 02:02:55;;;;;;;7.07;1.23;;;7.40;84.30;;;;;;5001033;28;20041;-63
2023/01/12 02:05:24;;;;;;;5.13;1.15;;;7.40;84.30;;;;;;5005229;28;20038;-63
2023/01/12 02:07:51;;;;;;;4.15;1.10;;;7.40;84.40;;;;;;5005300;28;20136;-62
2023/01/12 02:10:18;;;;;;;5.07;1.15;;;7.40;84.40;;;;;;5005316;28;20041;-63
2023/01/12 02:19:00;;;;;;;6.00;0.93;;;7.50;84.10;;;;;;5008580;28;20048;-62
2023/01/12 02:21:44;;;;;;;5.93;1.00;;;7.50;84.00;;;;;;5003346;28;20068;-62
2023/01/12 02:24:09;;;;;;;3.42;1.08;;;7.50;83.90;;;;;;5006846;28;20045;-62
2023/01/12 02:26:53;;;;;;;4.22;0.90;;;7.50;83.80;;;;;;5014008;28;20038;-62
2023/01/12 02:29:37;;;;;;;5.65;0.93;;;7.50;83.70;;;;;;5006412;28;20125;-62
2023/01/12 02:32:25;;;;;;;6.85;1.23;;;7.50;83.80;;;;;;5007710;28;20065;-63
2023/01/12 02:35:20;;;;;;;3.88;0.90;;;7.50;83.60;;;;;;5011121;28;20048;-62
2023/01/12 02:38:09;;;;;;;3.15;1.00;;;7.50;83.50;;;;;;5006130;28;20531;-62
2023/01/12 02:40:52;;;;;;;4.40;0.90;;;7.50;83.40;;;;;;5011646;28;20075;-62
2023/01/12 02:43:30;;;;;;;5.05;0.90;;;7.50;83.40;;;;;;5008851;28;20069;-62
2023/01/12 02:46:18;;;;;;;6.80;1.00;;;7.50;83.30;;;;;;5009832;28;20120;-61
2023/01/12 02:48:53;;;;;;;6.03;0.88;;;7.50;83.30;;;;;;5003467;28;20033;-63
2023/01/12 02:51:32;;;;;;;;;;;7.50;83.20;;;;;;5010793;28;20026;-62
2023/01/12 02:54:05;;;;;;;5.05;1.00;;;7.60;83.30;;;;;;5007376;28;19914;-63
2023/01/12 02:56:35;;;;;;;5.97;0.63;;;7.60;83.10;;;;;;5011755;28;20046;-61
2023/01/12 02:59:08;;;;;;;5.82;1.05;;;7.50;82.90;;;;;;5004691;28;20164;-60
2023/01/12 03:01:35;;;;;;;4.80;1.20;;;7.50;82.90;;;;;;5012829;28;20049;-61
2023/01/12 03:04:05;;;;;;;3.08;0.90;;;7.50;82.90;;;;;;5005458;28;20034;-60
2023/01/12 03:06:57;;;;;;;3.60;1.00;;;7.50;82.90;;;;;;5007469;28;20489;-61
2023/01/12 03:09:37;;;;;;;3.60;0.80;;;7.50;82.80;;;;;;5006331;28;20382;-60
2023/01/12 03:12:06;;;;;;;3.22;0.98;;;7.50;82.80;;;;;;5007105;28;20065;-62
2023/01/12 03:14:36;;;;;;;3.65;0.93;;;7.50;82.70;;;;;;5004337;28;20410;-63
2023/01/12 03:17:06;;;;;;;5.13;1.15;;;7.50;82.80;;;;;;5007124;28;20042;-61
2023/01/12 03:19:32;;;;;;;4.32;1.08;;;7.50;82.70;;;;;;5009835;28;20049;-63
2023/01/12 03:22:04;;;;;;;2.60;0.90;;;7.40;82.70;;;;;;5005325;28;20064;-61
2023/01/12 03:24:38;;;;;;;4.32;1.38;;;7.40;82.70;;;;;;5005132;28;20332;-59
2023/01/12 03:27:17;;;;;;;3.35;0.90;;;7.40;82.70;;;;;;5004208;28;20041;-63
2023/01/12 03:29:50;;;;;;;3.75;0.90;;;7.30;82.70;;;;;;5010720;28;20485;-63
2023/01/12 03:32:18;;;;;;;5.22;0.80;;;7.30;82.70;;;;;;5014498;28;20132;-61
2023/01/12 03:34:44;;;;;;;5.82;1.08;;;7.30;82.80;;;;;;5013172;28;20038;-61
2023/01/12 03:37:21;;;;;;;6.30;0.90;;;7.30;82.80;;;;;;5014802;28;20050;-62
2023/01/12 03:39:54;;;;;;;3.85;0.90;;;7.30;82.80;;;;;;5015401;28;20128;-63
2023/01/12 03:42:28;;;;;;;5.28;1.02;;;7.20;82.70;;;;;;5014378;28;20619;-63
2023/01/12 03:45:03;;;;;;;2.95;0.55;;;7.20;82.70;;;;;;5010579;28;20038;-63
2023/01/12 03:47:31;;;;;;;4.60;1.10;;;7.20;82.60;;;;;;5007963;28;20034;-63
2023/01/12 03:50:07;;;;;;;3.72;0.80;;;7.20;82.60;;;;;;5007039;28;20087;-63
2023/01/12 03:52:36;;;;;;;6.70;1.08;;;7.20;82.70;;;;;;5010658;28;20496;-63
2023/01/12 03:55:04;;;;;;;6.20;0.82;;;7.20;82.70;;;;;;5008590;28;20037;-63
2023/01/12 03:57:31;;;;;;;4.25;1.08;;;7.10;82.60;;;;;;5006931;28;20045;-60
2023/01/12 03:59:59;;;;;;;3.50;1.10;;;7.10;82.70;;;;;;5005850;28;20314;-62
2023/01/12 04:02:25;;;;;;;4.30;1.00;;;7.10;82.70;;;;;;5008272;28;20044;-61
2023/01/12 04:04:51;;;;;;;4.57;0.82;;;7.10;82.70;;;;;;5003617;28;20030;-61
2023/01/12 04:07:16;;;;;;;4.25;0.80;;;7.00;82.60;;;;;;5008143;28;20101;-62
2023/01/12 04:09:42;;;;;;;5.38;1.10;;;7.00;82.70;;;;;;5009651;28;20075;-62
2023/01/12 04:12:11;;;;;;;3.60;1.13;;;7.00;82.70;;;;;;5005534;28;20042;-60
2023/01/12 04:14:44;;;;;;;8.57;3.70;;;7.00;82.70;;;;;;5003666;28;20041;-62
2023/01/12 04:17:13;;;;;;;6.82;1.90;;;7.00;82.80;;;;;;5001433;28;20050;-62
2023/01/12 04:19:39;;;;;;;8.15;2.47;;;7.00;82.70;;;;;;5004724;28;20076;-62
2023/01/12 04:24:50;;;;;;;5.47;1.58;;;7.00;82.80;;;;;;5005038;28;20048;-62
2023/01/12 04:27:16;;;;;;;5.13;2.10;;;7.00;82.80;;;;;;5005925;28;20038;-62
2023/01/12 04:29:43;;;;;;;6.38;1.77;;;7.00;82.80;;;;;;5004464;28;20152;-62
2023/01/12 04:32:08;;;;;;;7.75;1.92;;;7.00;82.80;;;;;;5005136;28;20053;-62
2023/01/12 04:34:34;;;;;;;5.20;1.92;;;7.00;82.80;;;;;;5010580;28;20038;-62
2023/01/12 04:37:01;;;;;;;4.10;1.67;;;7.00;82.80;;;;;;5005366;28;20044;-62
2023/01/12 04:39:27;;;;;;;3.65;1.52;;;7.00;82.80;;;;;;5002873;28;20043;-62
2023/01/12 04:41:52;;;;;;;9.63;2.15;;;7.00;82.70;;;;;;5007413;28;20512;-60
2023/01/12 04:44:18;;;;;;;4.60;1.30;;;7.00;82.70;;;;;;5005246;28;20051;-61
2023/01/12 04:46:44;;;;;;;5.45;0.80;;;6.90;82.70;;;;;;5003792;28;20056;-62
2023/01/12 04:49:09;;;;;;;3.65;0.82;;;7.00;82.60;;;;;;5007206;28;20044;-62
2023/01/12 04:51:35;;;;;;;4.47;0.95;;;7.00;82.60;;;;;;5004480;28;20063;-62
2023/01/12 04:54:00;;;;;;;5.45;1.05;;;7.00;82.40;;;;;;5003255;28;20040;-60
2023/01/12 04:56:26;;;;;;;3.97;1.10;;;7.00;82.40;;;;;;5001916;28;20416;-61
2023/01/12 04:58:58;;;;;;;4.10;0.90;;;6.90;82.30;;;;;;5004782;28;20520;-62
2023/01/12 05:01:24;;;;;;;3.25;0.88;;;6.90;82.30;;;;;;5003876;28;20540;-63
2023/01/12 05:03:49;;;;;;;5.88;0.82;;;6.90;82.40;;;;;;5004326;28;20386;-62
2023/01/12 05:06:15;;;;;;;3.25;0.70;;;6.90;82.40;;;;;;5005492;28;20123;-63
2023/01/12 05:11:27;;;;;;;4.93;1.10;;;6.90;82.40;;;;;;5002402;28;20040;-61
2023/01/12 05:13:53;;;;;;;3.28;0.85;;;6.80;82.40;;;;;;5006680;28;20034;-62
2023/01/12 05:16:18;;;;;;;4.00;1.10;;;6.80;82.50;;;;;;5006045;28;20045;-62
2023/01/12 05:18:45;;;;;;;2.45;1.15;;;6.80;82.60;;;;;;5002479;28;20050;-62
2023/01/12 05:21:11;;;;;;;6.07;0.75;;;6.80;82.60;;;;;;5006813;28;20045;-61
2023/01/12 05:23:37;;;;;;;4.20;0.80;;;6.80;82.60;;;;;;5002365;28;20490;-63
2023/01/12 05:26:04;;;;;;;4.72;1.00;;;6.80;82.70;;;;;;5004189;28;20640;-62
2023/01/12 05:28:30;;;;;;;4.95;1.08;;;6.70;82.70;;;;;;4997581;28;20038;-61
2023/01/12 05:31:06;;;;;;;6.22;1.23;;;6.70;82.70;;;;;;5002809;28;20037;-61
2023/01/12 05:33:31;;;;;;;4.68;1.45;;;6.70;82.80;;;;;;5009279;28;20037;-62
2023/01/12 05:35:57;;;;;;;5.68;1.15;;;6.70;82.90;;;;;;5008711;28;20037;-62
2023/01/12 05:38:23;;;;;;;2.85;0.93;;;6.70;82.90;;;;;;5002727;28;20527;-61
2023/01/12 05:40:48;;;;;;;4.70;1.00;;;6.70;82.90;;;;;;5006511;28;20129;-62
2023/01/12 05:46:05;;;;;;;3.90;1.17;;;6.70;82.90;;;;;;5010301;28;20107;-62
2023/01/12 05:48:31;;;;;;;10.75;1.77;;;6.70;83.80;;;;;;5013041;28;20091;-62
2023/01/12 05:51:03;;;;;;;5.68;0.80;;;6.80;83.10;;;;;;5015434;28;20440;-61
2023/01/12 05:53:30;;;;;;;4.50;1.20;;;6.80;83.10;;;;;;5013034;28;20510;-62
2023/01/12 05:55:56;;;;;;;2.45;0.80;;;6.80;83.10;;;;;;5013901;28;20456;-62
2023/01/12 05:58:22;;;;;;;3.20;0.90;;;6.80;83.90;;;;;;5014498;28;20530;-62
2023/01/12 06:00:48;;;;;;;4.82;1.10;;;6.90;83.10;;;;;;5012395;28;20079;-62
2023/01/12 06:03:13;;;;;;;5.05;1.40;;;6.90;82.90;;;;;;5022257;28;20058;-62
2023/01/12 06:05:39;;;;;;;6.20;1.70;;;6.90;82.90;;;;;;5012819;28;20034;-62
2023/01/12 06:08:05;;;;;;;5.97;1.52;;;7.00;82.90;;;;;;5010737;28;20124;-62
2023/01/12 06:10:33;;;;;;;6.25;1.50;;;7.00;82.70;;;;;;5010485;28;20045;-62
2023/01/12 06:15:43;;;;;;;5.05;1.23;;;7.10;82.50;;;;;;5012175;28;20045;-61
2023/01/12 06:18:09;;;;;;;5.88;1.27;;;7.20;82.40;;;;;;5012713;28;20042;-62
2023/01/12 06:20:34;;;;;;;6.55;1.13;;;7.20;82.30;;;;;;5011217;28;20413;-60
2023/01/12 06:23:01;;;;;;;4.65;1.10;;;7.20;82.00;;;;;;5009396;28;20091;-61
2023/01/12 06:25:28;;;;;;;6.40;0.90;;;7.30;82.00;;;;;;5011916;28;20636;-61
2023/01/12 06:27:55;;;;;;;4.22;0.93;;;7.30;81.90;;;;;;5012885;28;20592;-62
2023/01/12 06:30:20;;;;;;;6.35;1.02;;;7.40;81.80;;;;;;5009387;28;20045;-59
2023/01/12 06:32:46;;;;;;;5.88;1.05;;;7.40;81.70;;;;;;5012112;28;20045;-61
2023/01/12 06:35:12;;;;;;;5.35;1.15;;;7.40;81.50;;;;;;5011968;28;20030;-60
2023/01/12 06:37:37;;;;;;;3.75;0.80;;;7.40;81.30;;;;;;5012760;28;20049;-61
2023/01/12 06:40:03;;;;;;;6.00;0.88;;;7.50;81.30;;;;;;5009639;28;20534;-60
2023/01/12 06:42:30;;;;;;;3.88;0.82;;;7.50;81.20;;;;;;5011506;28;20068;-62
2023/01/12 06:44:59;;;;;;;4.78;1.15;;;7.60;81.20;;;;;;5010878;28;20050;-61
2023/01/12 06:47:27;;;;;;;5.13;0.90;;;7.60;81.10;;;;;;5013135;28;20192;-60
2023/01/12 06:49:53;;;;;;;3.47;0.90;;;7.60;80.90;;;;;;5011209;28;20124;-61
2023/01/12 06:52:23;;;;;;;7.07;1.40;;;7.60;80.80;;;;;;5010577;28;21986;-62
2023/01/12 06:54:50;;;;;;;2.38;0.93;;;7.60;80.50;;;;;;5009733;28;20501;-60
2023/01/12 06:57:16;;;;;;;3.67;0.82;;;7.70;80.60;;;;;;5013376;28;20042;-61
2023/01/12 06:59:41;;;;;;;6.45;1.05;;;7.70;80.40;;;;;;5011032;28;20041;-60
2023/01/12 07:02:13;;;;;;;4.55;1.00;;;7.70;80.40;;;;;;5010828;28;20038;-61
2023/01/12 07:04:39;;;;;;;3.40;0.70;;;7.70;80.10;;;;;;5010308;28;20460;-59
2023/01/12 07:07:06;;;;;;;2.83;0.70;;;7.70;80.20;;;;;;5010541;28;20473;-59
2023/01/12 07:09:32;;;;;;;3.28;0.90;;;7.80;80.10;;;;;;5010166;28;20046;-62
2023/01/12 07:11:58;;;;;;;6.03;0.95;;;7.80;80.00;;;;;;5009682;28;20064;-60
2023/01/12 07:14:23;;;;;;;3.97;1.15;;;7.80;79.80;;;;;;5010839;28;20120;-60
2023/01/12 07:16:49;;;;;;;4.68;0.90;;;7.80;79.80;;;;;;5008282;28;20049;-61
2023/01/12 07:19:15;;;;;;;3.47;0.88;;;7.80;79.70;;;;;;5008182;28;20720;-60
2023/01/12 07:21:40;;;;;;;3.75;0.80;;;7.90;79.60;;;;;;5010469;28;20045;-61
2023/01/12 07:24:06;;;;;;;4.35;0.95;;;7.80;79.40;;;;;;5011021;28;20041;-62
2023/01/12 07:26:32;;;;;;;3.15;0.88;;;7.90;79.40;;;;;;5008885;28;20057;-62
2023/01/12 07:28:57;;;;;;;7.28;1.05;;;7.90;80.30;;;;;;5011275;28;20040;-61
2023/01/12 07:31:23;;;;;;;6.35;0.80;;;7.90;79.30;;;;;;5009519;28;20032;-61
2023/01/12 07:33:52;;;;;;;4.18;0.80;;;7.90;79.20;;;;;;5011040;28;20034;-61
2023/01/12 07:36:18;;;;;;;4.13;0.90;;;7.90;79.90;;;;;;5011228;28;20052;-62
2023/01/12 07:38:44;;;;;;;9.10;1.50;;;7.90;79.00;;;;;;5008903;28;20068;-61
2023/01/12 07:42:22;;;;;;;8.73;2.00;;;7.90;78.80;;;;;;5013318;28;20073;-62
2023/01/12 07:43:55;;;;;;;5.20;1.77;;;7.90;79.00;;;;;;5009890;28;20903;-60
2023/01/12 07:46:21;;;;;;;6.30;2.00;;;7.90;78.90;;;;;;5010019;28;20124;-62
2023/01/12 07:48:47;;;;;;;6.25;1.27;;;7.90;78.90;;;;;;5010993;28;20177;-60
2023/01/12 07:51:13;;;;;;;6.68;1.20;;;7.90;78.90;;;;;;5008923;28;20103;-61
2023/01/12 07:53:38;;;;;;;6.20;1.10;;;7.90;78.80;;;;;;5008650;28;20033;-61
2023/01/12 07:56:04;;;;;;;4.35;1.15;;;7.90;78.80;;;;;;5008153;28;20041;-62
2023/01/12 07:58:30;;;;;;;4.45;1.23;;;7.90;78.70;;;;;;5007935;28;22234;-62
2023/01/12 08:00:59;;;;;;;5.05;1.45;;;7.90;78.60;;;;;;5011243;28;20041;-62
2023/01/12 08:03:24;;;;;;;7.05;1.77;;;7.90;78.60;;;;;;5009402;28;20463;-61
2023/01/12 08:05:50;;;;;;;6.20;1.35;;;7.90;78.70;;;;;;5009825;28;20578;-62
2023/01/12 08:08:16;;;;;;;6.65;1.50;;;7.90;78.70;;;;;;5008675;28;20600;-62
2023/01/12 08:10:42;;;;;;;3.05;1.35;;;7.90;78.70;;;;;;5008126;28;20064;-62
2023/01/12 08:13:08;;;;;;;4.57;1.35;;;7.90;78.20;;;;;;5009572;28;20103;-61
2023/01/12 08:15:44;;;;;;;4.63;1.00;;;7.90;78.30;;;;;;5010106;28;20076;-62
2023/01/12 08:18:19;;;;;;;6.97;1.13;;;7.90;78.10;;;;;;5009947;28;20425;-61
2023/01/12 08:20:45;;;;;;;4.20;0.90;;;7.90;78.20;;;;;;5007647;28;20535;-58
2023/01/12 08:23:18;;;;;;;3.75;0.85;;;7.90;78.10;;;;;;5008589;28;20564;-61
2023/01/12 08:25:48;;;;;;;4.43;1.00;;;7.90;78.00;;;;;;5010841;28;20037;-61
2023/01/12 08:28:22;;;;;;;3.83;0.85;;;7.90;78.20;;;;;;5008880;28;20053;-61
2023/01/12 08:30:48;;;;;;;4.50;0.90;;;7.90;77.90;;;;;;5007660;28;20628;-59
2023/01/12 08:33:14;;;;;;;7.47;1.00;;;8.00;78.00;;;;;;5009005;28;20053;-61
2023/01/12 08:35:40;;;;;;;8.70;0.80;;;8.00;78.10;;;;;;5008909;28;20183;-59
2023/01/12 08:38:06;;;;;;;7.85;1.23;;;8.00;77.90;;;;;;5008716;28;20037;-61
2023/01/12 08:44:00;;;;;;;5.53;1.08;;;8.10;77.70;;;;;;5009964;28;20092;-61
2023/01/12 08:46:06;;;;;;;5.30;0.88;;;8.00;77.80;;;;;;5010333;28;20048;-61
2023/01/12 08:48:36;;;;;;;5.03;0.93;;;8.10;77.70;;;;;;5009824;28;20057;-60
2023/01/12 08:51:03;;;;;;;6.20;1.00;;;8.10;77.60;;;;;;5008923;28;20038;-58
2023/01/12 08:53:29;;;;;;;4.75;0.90;;;8.20;77.60;;;;;;5011661;28;20041;-61
2023/01/12 08:55:54;;;;;;;6.18;1.17;;;8.10;77.50;;;;;;5012010;28;20045;-58
2023/01/12 08:58:20;;;;;;;4.13;1.10;;;8.20;77.40;;;;;;5011960;28;20041;-59
2023/01/12 09:00:46;;;;;;;4.03;1.10;;;8.20;77.30;;;;;;5009791;28;20044;-61
2023/01/12 09:03:12;;;;;;;4.60;1.13;;;8.20;77.20;;;;;;5007396;28;20060;-60
2023/01/12 09:05:37;;;;;;;2.97;0.80;;;8.20;77.20;;;;;;5006910;28;20518;-60
2023/01/12 09:08:03;;;;;;;3.35;0.75;;;8.30;77.10;;;;;;5011385;28;20037;-59
2023/01/12 09:10:29;;;;;;;5.68;0.77;;;8.30;77.00;;;;;;5013739;28;20054;-60
2023/01/12 09:12:55;;;;;;;4.18;0.77;;;8.30;76.90;;;;;;5011388;28;20168;-61
2023/01/12 09:15:21;;;;;;;3.78;0.60;;;8.30;76.90;;;;;;5009742;28;20061;-61
2023/01/12 09:17:54;;;;;;;2.85;0.60;;;8.30;76.80;;;;;;5010270;28;20244;-60
2023/01/12 09:20:21;;;;;;;2.42;0.70;;;8.30;76.60;;;;;;5010606;28;20037;-60
2023/01/12 09:22:47;;;;;;;2.05;0.68;;;8.30;76.80;;;;;;5010565;28;20111;-60
2023/01/12 09:25:12;;;;;;;4.82;1.05;;;8.40;76.60;;;;;;5011749;28;20504;-60
2023/01/12 09:27:38;;;;;;;4.03;0.73;;;8.40;76.60;;;;;;5010350;28;20121;-60
2023/01/12 09:30:05;;;;;;;2.78;0.80;;;8.40;76.50;;;;;;5009889;28;20588;-60
2023/01/12 09:32:31;;;;;;;2.80;0.80;;;8.40;76.50;;;;;;5008954;28;20505;-61
2023/01/12 09:34:58;;;;;;;4.43;0.93;;;8.40;76.60;;;;;;5010183;28;20050;-62
2023/01/12 09:37:24;;;;;;;2.00;0.73;;;8.40;76.30;;;;;;5009094;28;20497;-61
2023/01/12 09:39:50;;;;;;;4.57;1.15;;;8.50;76.10;;;;;;5008812;28;20123;-61
2023/01/12 09:48:11;;;;;;;7.47;1.38;;;8.50;75.70;;;;;;5010564;28;20171;-61
2023/01/12 09:50:43;;;;;;;6.53;2.13;;;8.50;76.10;;;;;;5009641;28;20477;-61
2023/01/12 09:53:31;;;;;;;4.93;1.10;;;8.50;76.00;;;;;;5012028;28;20120;-61
2023/01/12 09:56:07;;;;;;;5.90;1.00;;;8.50;75.40;;;;;;5007632;28;20545;-61
2023/01/12 09:58:47;;;;;;;7.65;1.20;;;8.50;75.80;;;;;;5008989;28;20038;-60
2023/01/12 10:01:15;;;;;;;5.00;0.77;;;8.60;76.00;;;;;;5007740;28;20830;-61
2023/01/12 10:03:42;;;;;;;3.03;0.80;;;8.60;76.00;;;;;;5009399;28;20048;-61
2023/01/12 10:06:14;;;;;;;8.85;1.05;;;8.60;76.00;;;;;;5011130;28;20026;-61
2023/01/12 10:08:46;;;;;;;5.85;0.93;;;8.60;75.70;;;;;;5008539;28;20025;-61
2023/01/12 10:11:38;;;;;;;2.97;0.90;;;8.70;75.60;;;;;;5007566;28;20532;-61
2023/01/12 10:14:32;;;;;;;4.28;1.13;;;8.70;75.40;;;;;;5010118;28;20052;-61
2023/01/12 10:17:16;;;;;;;5.40;1.23;;;8.70;74.90;;;;;;5006950;28;20033;-60
2023/01/12 10:20:08;;;;;;;4.50;1.00;;;8.70;75.10;;;;;;5008157;28;20037;-60
2023/01/12 10:22:48;;;;;;;3.85;0.98;;;8.70;74.70;;;;;;5009318;28;20137;-61
2023/01/12 10:25:17;;;;;;;4.65;0.90;;;8.80;75.50;;;;;;5008441;28;20501;-59
2023/01/12 10:27:48;;;;;;;6.75;0.80;;;8.80;75.60;;;;;;5008095;28;20104;-60
2023/01/12 10:30:19;;;;;;;1.70;0.77;;;8.80;75.40;;;;;;5008310;28;20188;-59
2023/01/12 10:32:45;;;;;;;3.90;1.02;;;8.80;75.10;;;;;;5010286;28;20117;-59
2023/01/12 10:35:16;;;;;;;4.72;1.05;;;8.80;75.30;;;;;;5013256;28;20430;-59
2023/01/12 10:37:47;;;;;;;5.53;1.00;;;8.90;75.10;;;;;;5011982;28;20034;-60
2023/01/12 10:40:31;;;;;;;5.60;0.90;;;8.90;74.90;;;;;;5013719;28;20549;-59
2023/01/12 10:43:18;;;;;;;4.68;0.90;;;8.90;74.60;;;;;;5011961;28;20037;-60
2023/01/12 10:45:46;;;;;;;3.15;0.77;;;8.90;74.50;;;;;;5012697;28;20037;-59
2023/01/12 10:48:18;;;;;;;4.32;1.10;;;8.90;75.00;;;;;;5012229;28;20040;-59
2023/01/12 10:50:56;;;;;;;4.10;0.90;;;9.00;74.60;;;;;;5010283;28;20053;-60
2023/01/12 10:53:27;;;;;;;2.90;0.80;;;9.00;74.40;;;;;;5012047;28;20049;-59
2023/01/12 10:55:54;;;;;;;3.95;0.98;;;9.00;74.60;;;;;;5010553;28;20042;-61
2023/01/12 10:58:25;;;;;;;3.35;1.00;;;9.00;74.50;;;;;;5011511;28;20595;-59
2023/01/12 11:00:52;;;;;;;5.38;0.93;;;9.00;74.60;;;;;;5009805;28;20026;-61
2023/01/12 11:03:31;;;;;;;4.97;0.93;;;9.00;74.60;;;;;;5011892;28;20902;-60
2023/01/12 11:06:14;;;;;;;3.30;0.77;;;9.00;73.90;;;;;;5009588;28;20249;-59
2023/01/12 11:08:40;;;;;;;4.30;0.90;;;9.10;73.70;;;;;;5010567;28;20515;-60
2023/01/12 11:11:21;;;;;;;3.40;1.00;;;9.10;74.00;;;;;;5010043;28;20525;-60
2023/01/12 11:13:50;;;;;;;3.50;0.80;;;9.00;73.30;;;;;;5014654;28;20045;-61
2023/01/12 11:16:43;;;;;;;4.10;0.70;;;9.10;74.60;;;;;;5009071;28;20328;-60
2023/01/12 11:19:15;;;;;;;3.55;1.15;;;9.10;73.30;;;;;;5010984;28;20050;-59
2023/01/12 11:21:45;;;;;;;3.38;0.63;;;9.10;73.50;;;;;;5008797;28;20145;-61
2023/01/12 11:24:32;;;;;;;2.20;0.90;;;9.10;73.80;;;;;;5010631;28;20096;-60
2023/01/12 11:27:12;;;;;;;3.70;1.00;;;9.10;73.30;;;;;;5008362;28;20038;-61
2023/01/12 11:29:47;;;;;;;1.45;0.77;;;9.10;73.90;;;;;;5007763;28;20096;-60
2023/01/12 11:32:20;;;;;;;5.72;1.02;;;9.10;73.50;;;;;;5012053;28;20244;-62
2023/01/12 11:35:19;;;;;;;2.45;0.70;;;9.10;73.70;;;;;;5010529;28;20049;-62
2023/01/12 11:37:45;;;;;;;2.28;0.75;;;9.20;73.40;;;;;;5010926;28;20128;-61
2023/01/12 11:40:29;;;;;;;4.13;0.75;;;9.20;73.70;;;;;;5012002;28;20045;-60
2023/01/12 11:45:56;;;;;;;3.58;0.82;;;9.20;73.70;;;;;;5012036;28;20206;-62
2023/01/12 11:49:03;;;;;;;3.67;0.68;;;9.20;73.50;;;;;;5011923;28;20041;-61
2023/01/12 11:51:29;;;;;;;3.97;0.77;;;9.30;72.80;;;;;;5008688;28;20050;-61
2023/01/12 11:53:55;;;;;;;4.65;0.88;;;9.30;73.30;;;;;;5012779;28;20043;-61
2023/01/12 11:56:26;;;;;;;4.35;0.60;;;9.30;73.40;;;;;;5013216;28;20056;-59
2023/01/12 11:59:25;;;;;;;1.35;0.50;;;9.30;73.40;;;;;;5008825;28;20046;-61
2023/01/12 12:02:35;;;;;;;2.60;0.60;;;9.30;72.90;;;;;;5008523;28;20358;-61
2023/01/12 12:05:20;;;;;;;2.60;0.73;;;9.30;72.60;;;;;;5011331;28;20037;-60
2023/01/12 12:08:05;;;;;;;4.78;0.80;;;9.40;73.10;;;;;;5011270;28;20408;-61
2023/01/12 12:10:36;;;;;;;3.15;0.60;;;9.40;72.60;;;;;;5008562;28;20060;-61
2023/01/12 12:13:20;;;;;;;2.03;0.57;;;9.40;73.20;;;;;;5008647;28;20034;-61
2023/01/12 12:16:14;;;;;;;3.63;0.60;;;9.40;72.50;;;;;;5008375;28;20429;-60
2023/01/12 12:18:50;;;;;;;4.85;0.65;;;9.50;72.30;;;;;;5010611;28;20042;-59
2023/01/12 12:21:49;;;;;;;2.95;0.70;;;9.50;72.70;;;;;;5010640;28;20041;-61
2023/01/12 12:24:23;;;;;;;3.67;0.85;;;9.50;72.10;;;;;;5011548;28;20489;-59
2023/01/12 12:27:14;;;;;;;3.83;1.27;;;9.60;72.50;;;;;;5010953;28;20137;-58
2023/01/12 12:30:01;;;;;;;3.58;1.30;;;9.60;72.20;;;;;;5009639;28;20577;-61
2023/01/12 12:32:51;;;;;;;4.25;1.25;;;9.60;72.00;;;;;;5009544;28;20056;-60
2023/01/12 12:35:22;;;;;;;6.80;1.08;;;9.60;71.80;;;;;;5008700;28;20643;-61
2023/01/12 12:38:01;;;;;;;3.25;0.93;;;9.60;72.00;;;;;;5010776;28;20033;-60
2023/01/12 12:46:36;;;;;;;3.65;1.70;;;9.70;72.10;;;;;;5008833;28;20088;-59
2023/01/12 12:49:07;;;;;;;4.18;0.80;;;9.70;72.30;;;;;;5011883;28;20036;-60
2023/01/12 12:51:34;;;;;;;3.42;0.77;;;9.70;72.10;;;;;;5011020;28;20125;-61
2023/01/12 12:54:02;;;;;;;2.92;0.93;;;9.70;72.00;;;;;;5010789;28;20053;-60
2023/01/12 12:56:31;;;;;;;5.10;0.82;;;9.70;71.90;;;;;;5007321;28;20124;-62
2023/01/12 12:59:00;;;;;;;2.13;0.75;;;9.70;72.10;;;;;;5008613;28;20121;-61
2023/01/12 13:01:28;;;;;;;2.78;0.70;;;9.70;71.70;;;;;;5008865;28;20052;-60
2023/01/12 13:03:59;;;;;;;2.10;0.50;;;9.70;72.00;;;;;;5009920;28;20124;-60
2023/01/12 13:06:36;;;;;;;2.80;0.57;;;9.80;71.60;;;;;;5011114;28;20034;-59
2023/01/12 13:09:15;;;;;;;1.67;0.50;;;9.80;71.60;;;;;;5010637;28;20045;-59
2023/01/12 13:11:53;;;;;;;1.55;0.50;;;9.80;71.60;;;;;;5008333;28;20083;-59
2023/01/12 13:14:30;;;;;;;1.38;0.57;;;9.80;71.50;;;;;;5009195;28;20456;-59
2023/01/12 13:17:18;;;;;;;1.85;0.45;;;9.80;71.10;;;;;;5005392;28;20088;-60
2023/01/12 13:20:04;;;;;;;2.50;0.65;;;9.80;71.10;;;;;;5009557;28;20057;-61
2023/01/12 13:22:48;;;;;;;5.50;0.60;;;9.80;70.60;;;;;;5011268;28;20057;-60
2023/01/12 13:25:18;;;;;;;2.77;0.50;;;9.90;71.50;;;;;;5009896;28;20116;-60
2023/01/12 13:28:01;;;;;;;2.88;0.50;;;9.90;71.30;;;;;;5010462;28;20045;-58
2023/01/12 13:30:27;;;;;;;1.77;0.43;;;9.90;70.90;;;;;;5009771;28;20056;-60
2023/01/12 13:32:59;;;;;;;3.53;0.40;;;9.90;71.60;;;;;;5008292;28;20042;-60
2023/01/12 13:35:34;;;;;;;1.67;0.50;;;9.90;71.70;;;;;;5010112;28;20476;-61
2023/01/12 13:38:27;;;;;;;2.45;0.70;;;9.90;71.40;;;;;;5008687;28;20069;-61
2023/01/12 13:44:11;;;;;;;2.60;0.80;;;10.00;71.10;;;;;;5009773;28;20498;-61
2023/01/12 13:46:50;;;;;;;1.92;0.70;;;10.00;71.40;;;;;;5007538;28;20038;-60
2023/01/12 13:49:32;;;;;;;3.47;0.90;;;10.00;71.10;;;;;;5011169;28;20119;-61
2023/01/12 13:52:18;;;;;;;2.47;0.73;;;10.00;71.30;;;;;;5009421;28;20397;-60
2023/01/12 13:54:50;;;;;;;2.78;0.77;;;10.00;71.60;;;;;;5008516;28;20516;-60
2023/01/12 13:57:21;;;;;;;2.35;0.60;;;10.00;71.30;;;;;;5010906;28;20037;-61
2023/01/12 14:00:07;;;;;;;3.00;0.85;;;10.00;71.60;;;;;;5009984;28;20503;-61